createdAt,value
2018-12-31T00:01:37.747Z,102632.15
2018-12-31T00:04:08.388Z,102631.56
2018-12-31T00:06:38.873Z,102635.78
2018-12-31T00:09:09.509Z,102635.22
2018-12-31T00:11:39.989Z,102633.13
2018-12-31T00:14:10.477Z,102638.89
2018-12-31T00:16:41.026Z,102642.05
2018-12-31T00:19:11.496Z,102643.33
2018-12-31T00:21:41.983Z,102660.70
2018-12-31T00:24:12.522Z,102668.41
2018-12-31T00:26:43.033Z,102668.02
2018-12-31T00:29:13.530Z,102667.77
2018-12-31T00:31:44.070Z,102673.86
2018-12-31T00:34:14.554Z,102671.68
2018-12-31T00:36:45.125Z,102673.92
2018-12-31T00:39:15.788Z,102665.65
2018-12-31T00:41:46.370Z,102665.34
2018-12-31T00:44:16.916Z,102661.52
2018-12-31T00:46:47.459Z,102660.20
2018-12-31T00:49:18.058Z,102663.91
2018-12-31T00:51:48.627Z,102662.10
2018-12-31T00:54:19.215Z,102672.14
2018-12-31T00:56:49.730Z,102673.97
2018-12-31T00:59:20.270Z,102679.11
2018-12-31T01:01:50.839Z,102668.53
2018-12-31T01:04:21.348Z,102663.47
2018-12-31T01:06:51.857Z,102676.47
2018-12-31T01:09:22.488Z,102678.61
2018-12-31T01:11:53.069Z,102690.63
2018-12-31T01:14:23.651Z,102685.71
2018-12-31T01:16:54.280Z,102684.78
2018-12-31T01:19:24.815Z,102682.08
2018-12-31T01:21:55.344Z,102683.89
2018-12-31T01:24:25.963Z,102680.13
2018-12-31T01:26:56.517Z,102676.23
2018-12-31T01:29:27.066Z,102683.53
2018-12-31T01:31:57.601Z,102683.87
2018-12-31T01:34:28.263Z,102676.19
2018-12-31T01:36:58.773Z,102675.20
2018-12-31T01:39:29.320Z,102672.14
2018-12-31T01:41:59.851Z,102657.32
2018-12-31T01:44:30.364Z,102656.09
2018-12-31T01:47:00.940Z,102655.95
2018-12-31T01:49:31.508Z,102654.92
2018-12-31T01:52:02.034Z,102657.69
2018-12-31T01:54:32.640Z,102653.27
2018-12-31T01:57:03.247Z,102651.96
2018-12-31T01:59:33.901Z,102658.47
2018-12-31T02:02:04.523Z,102654.33
2018-12-31T02:04:35.129Z,102666.99
2018-12-31T02:07:05.658Z,102671.71
2018-12-31T02:09:36.380Z,102674.88
2018-12-31T02:12:06.901Z,102665.14
2018-12-31T02:14:37.457Z,102673.84
2018-12-31T02:17:08.092Z,102666.63
2018-12-31T02:19:38.774Z,102656.18
2018-12-31T02:22:09.369Z,102660.17
2018-12-31T02:24:39.980Z,102664.67
2018-12-31T02:27:10.620Z,102656.95
2018-12-31T02:29:41.173Z,102675.27
2018-12-31T02:32:11.717Z,102684.84
2018-12-31T02:34:42.320Z,102674.81
2018-12-31T02:37:13.144Z,102674.92
2018-12-31T02:39:43.739Z,102669.62
2018-12-31T02:42:14.244Z,102661.16
2018-12-31T02:44:44.753Z,102673.17
2018-12-31T02:47:15.333Z,102677.02
2018-12-31T02:49:45.950Z,102669.73
2018-12-31T02:52:16.564Z,102671.32
2018-12-31T02:54:47.377Z,102657.10
2018-12-31T02:57:17.956Z,102660.81
2018-12-31T02:59:48.467Z,102663.33
2018-12-31T03:02:19.054Z,102661.73
2018-12-31T03:04:49.610Z,102660.42
2018-12-31T03:07:20.137Z,102651.82
2018-12-31T03:09:50.719Z,102656.66
2018-12-31T03:12:21.217Z,102663.08
2018-12-31T03:14:51.763Z,102674.84
2018-12-31T03:17:22.304Z,102674.98
2018-12-31T03:19:52.790Z,102683.00
2018-12-31T03:22:23.316Z,102686.17
2018-12-31T03:24:54.007Z,102684.42
2018-12-31T03:27:24.515Z,102690.40
2018-12-31T03:29:55.040Z,102699.25
2018-12-31T03:32:25.651Z,102693.61
2018-12-31T03:34:56.190Z,102694.11
2018-12-31T03:37:26.675Z,102688.47
2018-12-31T03:39:57.272Z,102685.98
2018-12-31T03:42:27.805Z,102688.47
2018-12-31T03:44:58.316Z,102696.06
2018-12-31T03:47:28.857Z,102687.44
2018-12-31T03:49:59.392Z,102686.87
2018-12-31T03:52:29.891Z,102678.73
2018-12-31T03:55:00.470Z,102682.59
2018-12-31T03:57:31.016Z,102672.56
2018-12-31T04:00:01.558Z,102667.17
2018-12-31T04:02:32.119Z,102665.37
2018-12-31T04:05:02.651Z,102663.66
2018-12-31T04:07:33.212Z,102659.14
2018-12-31T04:10:03.807Z,102656.34
2018-12-31T04:12:34.340Z,102655.03
2018-12-31T04:15:04.919Z,102655.78
2018-12-31T04:17:35.497Z,102661.15
2018-12-31T04:20:06.201Z,102665.81
2018-12-31T04:22:40.039Z,102664.05
2018-12-31T04:25:10.577Z,102670.90
2018-12-31T04:27:41.151Z,102670.09
2018-12-31T04:30:11.797Z,102670.37
2018-12-31T04:32:42.288Z,102680.14
2018-12-31T04:35:12.849Z,102678.35
2018-12-31T04:37:43.427Z,102674.61
2018-12-31T04:40:13.965Z,102675.05
2018-12-31T04:42:44.458Z,102666.39
2018-12-31T04:45:15.008Z,102674.91
2018-12-31T04:47:45.597Z,102675.05
2018-12-31T04:50:16.253Z,102680.14
2018-12-31T04:52:46.833Z,102676.20
2018-12-31T04:55:17.358Z,102679.06
2018-12-31T04:57:47.866Z,102682.83
2018-12-31T05:00:18.476Z,102684.66
2018-12-31T05:02:49.155Z,102692.13
2018-12-31T05:05:19.711Z,102694.35
2018-12-31T05:07:50.334Z,102693.43
2018-12-31T05:10:20.911Z,102685.05
2018-12-31T05:12:51.475Z,102686.23
2018-12-31T05:15:22.259Z,102684.91
2018-12-31T05:17:52.902Z,102690.98
2018-12-31T05:20:23.483Z,102684.31
2018-12-31T05:22:54.937Z,102688.92
2018-12-31T05:25:25.572Z,102689.42
2018-12-31T05:27:56.192Z,102694.17
2018-12-31T05:30:26.784Z,102698.89
2018-12-31T05:32:57.496Z,102697.30
2018-12-31T05:35:28.181Z,102702.34
2018-12-31T05:37:58.976Z,102695.77
2018-12-31T05:40:29.630Z,102700.88
2018-12-31T05:43:00.416Z,102701.81
2018-12-31T05:45:31.187Z,102697.48
2018-12-31T05:48:01.839Z,102692.08
2018-12-31T05:50:32.503Z,102696.94
2018-12-31T05:53:03.151Z,102686.77
2018-12-31T05:55:33.792Z,102689.34
2018-12-31T05:58:04.858Z,102688.56
2018-12-31T06:00:36.261Z,102694.20
2018-12-31T06:03:06.853Z,102701.16
2018-12-31T06:05:37.487Z,102701.61
2018-12-31T06:08:08.096Z,102701.11
2018-12-31T06:10:38.651Z,102697.11
2018-12-31T06:13:09.249Z,102688.59
2018-12-31T06:15:39.904Z,102684.37
2018-12-31T06:18:10.500Z,102690.88
2018-12-31T06:20:41.120Z,102694.87
2018-12-31T06:23:11.966Z,102691.53
2018-12-31T06:25:42.488Z,102694.16
2018-12-31T06:28:13.169Z,102698.28
2018-12-31T06:30:43.956Z,102701.25
2018-12-31T06:33:14.635Z,102711.84
2018-12-31T06:35:45.267Z,102709.33
2018-12-31T06:38:15.780Z,102706.70
2018-12-31T06:40:46.262Z,102713.66
2018-12-31T06:43:16.739Z,102718.86
2018-12-31T06:45:47.271Z,102721.82
2018-12-31T06:48:17.746Z,102729.31
2018-12-31T06:50:48.239Z,102724.05
2018-12-31T06:53:19.017Z,102726.15
2018-12-31T06:55:49.512Z,102729.31
2018-12-31T06:58:19.966Z,102729.17
2018-12-31T07:00:50.524Z,102733.11
2018-12-31T07:03:20.979Z,102731.80
2018-12-31T07:05:51.457Z,102726.43
2018-12-31T07:08:21.981Z,102729.45
2018-12-31T07:10:52.467Z,102734.42
2018-12-31T07:13:23.007Z,102733.00
2018-12-31T07:15:53.534Z,102739.46
2018-12-31T07:18:24.012Z,102748.52
2018-12-31T07:20:54.455Z,102748.23
2018-12-31T07:23:24.998Z,102754.94
2018-12-31T07:25:55.656Z,102747.89
2018-12-31T07:28:26.133Z,102756.06
2018-12-31T07:30:56.657Z,102756.39
2018-12-31T07:33:27.165Z,102759.02
2018-12-31T07:35:57.669Z,102766.41
2018-12-31T07:38:28.179Z,102764.56
2018-12-31T07:40:58.704Z,102760.17
2018-12-31T07:43:29.045Z,102757.48
2018-12-31T07:45:59.575Z,102758.47
2018-12-31T07:48:29.994Z,102754.05
2018-12-31T07:51:00.452Z,102754.52
2018-12-31T07:53:31.028Z,102755.59
2018-12-31T07:56:01.440Z,102755.84
2018-12-31T07:58:31.938Z,102766.16
2018-12-31T08:01:02.484Z,102764.34
2018-12-31T08:03:32.930Z,102768.78
2018-12-31T08:06:03.449Z,102774.03
2018-12-31T08:08:33.956Z,102772.72
2018-12-31T08:11:04.468Z,102769.45
2018-12-31T08:13:34.998Z,102771.69
2018-12-31T08:16:05.595Z,102775.37
2018-12-31T08:18:36.098Z,102767.05
2018-12-31T08:21:06.581Z,102770.02
2018-12-31T08:23:37.113Z,102769.20
2018-12-31T08:26:09.220Z,102772.59
2018-12-31T08:28:39.671Z,102764.16
2018-12-31T08:31:10.218Z,102772.59
2018-12-31T08:33:40.702Z,102765.42
2018-12-31T08:36:11.199Z,102776.80
2018-12-31T08:38:41.722Z,102775.02
2018-12-31T08:41:12.196Z,102779.52
2018-12-31T08:43:42.694Z,102764.94
2018-12-31T08:46:13.288Z,102776.83
2018-12-31T08:48:43.779Z,102770.59
2018-12-31T08:51:14.261Z,102771.84
2018-12-31T08:53:44.829Z,102775.14
2018-12-31T08:56:15.319Z,102773.18
2018-12-31T08:58:45.797Z,102771.92
2018-12-31T09:01:16.314Z,102771.38
2018-12-31T09:03:46.770Z,102769.56
2018-12-31T09:06:17.275Z,102767.92
2018-12-31T09:08:47.803Z,102772.91
2018-12-31T09:11:18.292Z,102771.33
2018-12-31T09:13:48.808Z,102772.20
2018-12-31T09:16:19.426Z,102766.02
2018-12-31T09:18:49.892Z,102767.48
2018-12-31T09:21:20.357Z,102768.25
2018-12-31T09:23:50.951Z,102778.23
2018-12-31T09:26:21.421Z,102776.80
2018-12-31T09:28:51.897Z,102763.59
2018-12-31T09:31:22.420Z,102753.46
2018-12-31T09:33:52.945Z,102743.33
2018-12-31T09:36:23.429Z,102750.83
2018-12-31T09:38:53.972Z,102756.70
2018-12-31T09:41:24.390Z,102754.66
2018-12-31T09:43:54.895Z,102750.66
2018-12-31T09:46:25.438Z,102750.63
2018-12-31T09:48:55.891Z,102746.16
2018-12-31T09:51:26.392Z,102741.77
2018-12-31T09:53:56.856Z,102733.65
2018-12-31T09:56:27.329Z,102734.73
2018-12-31T09:58:57.845Z,102734.45
2018-12-31T10:01:28.442Z,102736.55
2018-12-31T10:03:58.841Z,102737.75
2018-12-31T10:06:29.311Z,102734.07
2018-12-31T10:08:59.897Z,102729.47
2018-12-31T10:11:30.304Z,102732.88
2018-12-31T10:14:00.692Z,102741.48
2018-12-31T10:16:31.258Z,102739.45
2018-12-31T10:19:01.708Z,102734.84
2018-12-31T10:21:32.214Z,102733.25
2018-12-31T10:24:02.771Z,102728.25
2018-12-31T10:26:33.252Z,102722.14
2018-12-31T10:29:03.776Z,102723.64
2018-12-31T10:31:34.348Z,102726.16
2018-12-31T10:34:04.896Z,102724.94
2018-12-31T10:36:35.385Z,102717.56
2018-12-31T10:39:07.851Z,102712.17
2018-12-31T10:41:38.359Z,102705.94
2018-12-31T10:44:08.853Z,102707.58
2018-12-31T10:46:39.354Z,102712.17
2018-12-31T10:49:09.861Z,102710.40
2018-12-31T10:51:40.399Z,102711.78
2018-12-31T10:54:10.933Z,102721.25
2018-12-31T10:56:43.136Z,102710.72
2018-12-31T10:59:13.546Z,102712.30
2018-12-31T11:01:44.131Z,102722.56
2018-12-31T11:04:14.599Z,102727.06
2018-12-31T11:06:45.083Z,102725.88
2018-12-31T11:09:15.603Z,102722.66
2018-12-31T11:11:46.094Z,102717.59
2018-12-31T11:14:16.574Z,102705.42
2018-12-31T11:16:47.178Z,102709.05
2018-12-31T11:19:17.661Z,102707.98
2018-12-31T11:21:48.153Z,102703.13
2018-12-31T11:24:18.760Z,102694.24
2018-12-31T11:26:49.211Z,102691.30
2018-12-31T11:29:19.695Z,102685.03
2018-12-31T11:31:50.207Z,102680.06
2018-12-31T11:34:20.813Z,102684.55
2018-12-31T11:36:51.240Z,102676.45
2018-12-31T11:39:21.797Z,102681.59
2018-12-31T11:41:52.279Z,102682.52
2018-12-31T11:44:22.773Z,102684.84
2018-12-31T11:46:53.284Z,102672.34
2018-12-31T11:49:23.684Z,102674.27
2018-12-31T11:51:54.170Z,102674.20
2018-12-31T11:54:24.678Z,102672.23
2018-12-31T11:56:55.168Z,102664.34
2018-12-31T11:59:25.671Z,102659.45
2018-12-31T12:01:56.187Z,102659.45
2018-12-31T12:04:26.729Z,102662.16
2018-12-31T12:06:57.230Z,102657.78
2018-12-31T12:09:28.183Z,102658.64
2018-12-31T12:11:58.672Z,102659.70
2018-12-31T12:14:29.255Z,102654.45
2018-12-31T12:16:59.729Z,102664.16
2018-12-31T12:19:30.195Z,102659.66
2018-12-31T12:22:00.799Z,102665.92
2018-12-31T12:24:31.297Z,102658.32
2018-12-31T12:27:02.065Z,102659.70
2018-12-31T12:29:32.679Z,102656.94
2018-12-31T12:32:03.232Z,102652.38
2018-12-31T12:34:33.704Z,102655.12
2018-12-31T22:02:56.846Z,102283.19
2018-12-31T22:05:22.557Z,102287.97
2018-12-31T22:07:53.197Z,102289.85
2018-12-31T22:10:23.779Z,102296.28
2018-12-31T22:12:54.537Z,102294.52
2018-12-31T22:15:25.104Z,102306.44
2018-12-31T22:17:55.723Z,102296.81
2018-12-31T22:20:26.290Z,102295.34
2018-12-31T22:22:56.878Z,102309.75
2018-12-31T22:25:27.419Z,102287.22
2018-12-31T22:27:57.961Z,102292.86
2018-12-31T22:30:28.553Z,102274.99
2018-12-31T22:32:59.084Z,102286.84
2018-12-31T22:35:29.961Z,102272.36
2018-12-31T22:38:00.593Z,102252.98
2018-12-31T22:40:31.141Z,102247.87
2018-12-31T22:43:02.230Z,102242.08
2018-12-31T22:45:32.804Z,102252.98
2018-12-31T22:48:03.362Z,102245.95
2018-12-31T22:50:33.920Z,102235.72
2018-12-31T22:53:04.495Z,102222.17
2018-12-31T22:55:35.059Z,102227.25
2018-12-31T22:58:05.686Z,102224.09
2018-12-31T23:00:37.414Z,102215.17
2018-12-31T23:03:08.010Z,102204.76
2018-12-31T23:05:39.958Z,102208.59
2018-12-31T23:08:10.545Z,102195.20
2018-12-31T23:10:41.184Z,102187.16
2018-12-31T23:13:11.700Z,102189.03
2018-12-31T23:15:42.292Z,102187.16
2018-12-31T23:18:12.909Z,102173.83
2018-12-31T23:20:43.833Z,102184.90
2018-12-31T23:23:14.640Z,102171.51
2018-12-31T23:25:45.186Z,102167.78
2018-12-31T23:28:15.758Z,102160.98
2018-12-31T23:30:46.329Z,102158.66
2018-12-31T23:33:17.003Z,102164.83
2018-12-31T23:35:47.591Z,102160.13
2018-12-31T23:38:18.388Z,102158.21
2018-12-31T23:40:48.961Z,102166.90
2018-12-31T23:43:19.607Z,102156.45
2018-12-31T23:45:50.793Z,102145.24
2018-12-31T23:48:21.404Z,102126.97
2018-12-31T23:50:52.008Z,102139.38
2018-12-31T23:53:22.629Z,102136.06
2018-12-31T23:55:53.214Z,102126.38
2018-12-31T23:58:23.764Z,102123.44
